Time;durP1;ratioP1;P1;durP2;ratioP2;P2;SDS_P1;SDS_P2;PMS_P1;PMS_P2;Temp;Humidity;BMP_temperature;BMP_pressure;BME280_temperature;BME280_humidity;BME280_pressure;Samples;Min_cycle;Max_cycle;Signal;HPM_P1;HPM_P2
2022/07/20 00:00:18;;;;;;;;;;;;;;;;;;4998846;28;19964;-82
2022/07/20 00:02:43;;;;;;;;;;;;;;;;;;4999880;28;20422;-83
2022/07/20 00:05:08;;;;;;;;;;;;;;;;;;5001531;28;19926;-82
2022/07/20 00:07:33;;;;;;;;;;;;;;;;;;5001561;28;19936;-82
2022/07/20 00:12:42;;;;;;;;;;;;;;;;;;4998849;28;19972;-82
2022/07/20 00:15:08;;;;;;;;;;;;;;;;;;4998790;28;20391;-82
2022/07/20 00:17:33;;;;;;;;;;;;;;;;;;4998401;28;19928;-82
2022/07/20 00:19:58;;;;;;;;;;;;;;;;;;4999970;28;20261;-82
2022/07/20 00:22:23;;;;;;;;;;;;;;;;;;4986839;28;19917;-83
2022/07/20 00:24:48;;;;;;;;;;;;;;;;;;5001557;28;20442;-82
2022/07/20 00:27:13;;;;;;;;;;;;;;;;;;4998402;28;19913;-82
2022/07/20 00:29:39;;;;;;;;;;;;;;;;;;4984679;28;20390;-82
2022/07/20 00:32:04;;;;;;;;;;;;;;;;;;4996951;28;19929;-82
2022/07/20 00:34:29;;;;;;;;;;;;;;;;;;4997308;28;20308;-83
2022/07/20 00:36:54;;;;;;;;;;;;;;;;;;5000424;28;19922;-83
2022/07/20 00:39:19;;;;;;;;;;;;;;;;;;5000084;28;20434;-82
2022/07/20 00:41:44;;;;;;;;;;;;;;;;;;4997718;28;19927;-82
2022/07/20 00:44:10;;;;;;;;;;;;;;;;;;4999450;28;19913;-83
2022/07/20 00:46:35;;;;;;;;;;;;;;;;;;4998943;28;19924;-82
2022/07/20 00:49:00;;;;;;;;;;;;;;;;;;4996223;28;19932;-82
2022/07/20 00:51:26;;;;;;;;;;;;;;;;;;5001771;28;19936;-82
2022/07/20 00:53:51;;;;;;;;;;;;;;;;;;4995817;28;19929;-82
2022/07/20 00:56:16;;;;;;;;;;;;;;;;;;4995233;28;19917;-82
2022/07/20 00:58:41;;;;;;;;;;;;;;;;;;4997666;28;19959;-82
2022/07/20 01:01:07;;;;;;;;;;;;;;;;;;5000797;28;19937;-82
2022/07/20 01:03:32;;;;;;;;;;;;;;;;;;4996972;28;19921;-83
2022/07/20 01:05:58;;;;;;;;;;;;;;;;;;5000156;28;19914;-82
2022/07/20 01:08:23;;;;;;;;;;;;;;;;;;5002597;28;20004;-83
2022/07/20 01:10:48;;;;;;;;;;;;;;;;;;4996341;28;20264;-83
2022/07/20 01:13:14;;;;;;;;;;;;;;;;;;4995336;28;19928;-82
2022/07/20 01:15:39;;;;;;;;;;;;;;;;;;4991927;28;20220;-82
2022/07/20 01:18:04;;;;;;;;;;;;;;;;;;5002452;28;19956;-82
2022/07/20 01:20:29;;;;;;;;;;;;;;;;;;4996472;28;20372;-83
2022/07/20 01:22:54;;;;;;;;;;;;;;;;;;4999054;28;19972;-82
2022/07/20 01:25:19;;;;;;;;;;;;;;;;;;4979466;28;20363;-83
2022/07/20 01:27:45;;;;;;;;;;;;;;;;;;4997496;28;19960;-83
2022/07/20 01:30:10;;;;;;;;;;;;;;;;;;4996752;28;19922;-82
2022/07/20 01:32:35;;;;;;;;;;;;;;;;;;5000467;28;19920;-82
2022/07/20 01:35:00;;;;;;;;;;;;;;;;;;5000139;28;20020;-82
2022/07/20 01:37:25;;;;;;;;;;;;;;;;;;4999723;28;19922;-83
2022/07/20 01:39:51;;;;;;;;;;;;;;;;;;4997333;28;20496;-82
2022/07/20 01:42:16;;;;;;;;;;;;;;;;;;4996837;28;19949;-82
2022/07/20 01:44:41;;;;;;;;;;;;;;;;;;5000307;28;20463;-83
2022/07/20 01:47:06;;;;;;;;;;;;;;;;;;5001156;28;19917;-83
2022/07/20 01:49:31;;;;;;;;;;;;;;;;;;5000822;28;19918;-83
2022/07/20 01:51:57;;;;;;;;;;;;;;;;;;5001469;28;20366;-82
2022/07/20 01:54:22;;;;;;;;;;;;;;;;;;4981471;28;20016;-83
2022/07/20 01:56:47;;;;;;;;;;;;;;;;;;5000916;28;20378;-83
2022/07/20 01:59:12;;;;;;;;;;;;;;;;;;5001248;28;19925;-83
2022/07/20 02:01:38;;;;;;;;;;;;;;;;;;4999987;28;19940;-82
2022/07/20 02:04:03;;;;;;;;;;;;;;;;;;5003856;28;19917;-83
2022/07/20 02:06:28;;;;;;;;;;;;;;;;;;5000634;28;19914;-83
2022/07/20 02:08:53;;;;;;;;;;;;;;;;;;5000759;28;19914;-82
2022/07/20 02:11:18;;;;;;;;;;;;;;;;;;5000337;28;21456;-83
2022/07/20 02:13:43;;;;;;;;;;;;;;;;;;5004114;28;20450;-82
2022/07/20 02:16:14;;;;;;;;;;;;;;;;;;4997373;28;19926;-82
2022/07/20 02:18:40;;;;;;;;;;;;;;;;;;4999823;28;19929;-82
2022/07/20 02:21:05;;;;;;;;;;;;;;;;;;4995566;28;19913;-83
2022/07/20 02:23:30;;;;;;;;;;;;;;;;;;5003853;28;19957;-82
2022/07/20 02:25:55;;;;;;;;;;;;;;;;;;5000292;28;19917;-82
2022/07/20 02:28:21;;;;;;;;;;;;;;;;;;5004771;28;19913;-83
2022/07/20 02:30:46;;;;;;;;;;;;;;;;;;5001581;28;19937;-82
2022/07/20 02:33:11;;;;;;;;;;;;;;;;;;5005174;28;19913;-83
2022/07/20 02:35:36;;;;;;;;;;;;;;;;;;4996539;28;19943;-82
2022/07/20 02:38:02;;;;;;;;;;;;;;;;;;4988049;28;20932;-83
2022/07/20 02:40:27;;;;;;;;;;;;;;;;;;5001117;28;19914;-82
2022/07/20 02:42:52;;;;;;;;;;;;;;;;;;5000835;28;19964;-82
2022/07/20 02:45:17;;;;;;;;;;;;;;;;;;4995211;28;20395;-83
2022/07/20 02:47:42;;;;;;;;;;;;;;;;;;4998440;28;19913;-83
2022/07/20 02:50:07;;;;;;;;;;;;;;;;;;5002135;28;20398;-82
2022/07/20 02:52:33;;;;;;;;;;;;;;;;;;5001743;28;19925;-83
2022/07/20 02:54:58;;;;;;;;;;;;;;;;;;4995927;28;20004;-83
2022/07/20 02:57:23;;;;;;;;;;;;;;;;;;5003382;28;19961;-82
2022/07/20 02:59:48;;;;;;;;;;;;;;;;;;4995574;28;20454;-82
2022/07/20 03:02:13;;;;;;;;;;;;;;;;;;5001260;28;19914;-83
2022/07/20 03:04:38;;;;;;;;;;;;;;;;;;5001252;28;19928;-82
2022/07/20 03:07:04;;;;;;;;;;;;;;;;;;4996435;28;20004;-83
2022/07/20 03:09:29;;;;;;;;;;;;;;;;;;4999188;28;19945;-82
2022/07/20 03:11:54;;;;;;;;;;;;;;;;;;5000771;28;19929;-83
2022/07/20 03:14:19;;;;;;;;;;;;;;;;;;5001186;28;19941;-83
2022/07/20 03:16:44;;;;;;;;;;;;;;;;;;5001283;28;19921;-83
2022/07/20 03:19:09;;;;;;;;;;;;;;;;;;5000500;28;19918;-83
2022/07/20 03:21:35;;;;;;;;;;;;;;;;;;4998061;28;19917;-84
2022/07/20 03:24:00;;;;;;;;;;;;;;;;;;5000933;28;19973;-83
2022/07/20 03:26:25;;;;;;;;;;;;;;;;;;4998022;28;19925;-83
2022/07/20 03:28:50;;;;;;;;;;;;;;;;;;5002841;28;19954;-83
2022/07/20 03:31:15;;;;;;;;;;;;;;;;;;4998687;28;19921;-83
2022/07/20 03:33:40;;;;;;;;;;;;;;;;;;5004534;28;19959;-83
2022/07/20 03:36:06;;;;;;;;;;;;;;;;;;4999462;28;20019;-83
2022/07/20 03:38:31;;;;;;;;;;;;;;;;;;5004070;28;20456;-83
2022/07/20 03:40:56;;;;;;;;;;;;;;;;;;4997212;28;19965;-84
2022/07/20 03:43:25;;;;;;;;;;;;;;;;;;4999798;28;20066;-83
2022/07/20 03:45:50;;;;;;;;;;;;;;;;;;4999153;28;20005;-84
2022/07/20 03:48:15;;;;;;;;;;;;;;;;;;4998576;28;20012;-84
2022/07/20 03:50:40;;;;;;;;;;;;;;;;;;4997637;28;19925;-84
2022/07/20 03:53:05;;;;;;;;;;;;;;;;;;4981911;28;20029;-84
2022/07/20 03:55:30;;;;;;;;;;;;;;;;;;4981093;28;19975;-83
2022/07/20 03:57:56;;;;;;;;;;;;;;;;;;5001496;28;20375;-84
2022/07/20 04:00:21;;;;;;;;;;;;;;;;;;5001826;28;20421;-84
2022/07/20 04:02:46;;;;;;;;;;;;;;;;;;4998981;28;20009;-84
2022/07/20 04:05:11;;;;;;;;;;;;;;;;;;4998758;28;20363;-84
2022/07/20 04:07:36;;;;;;;;;;;;;;;;;;5001984;28;21353;-84
2022/07/20 04:10:01;;;;;;;;;;;;;;;;;;5001219;28;19913;-84
2022/07/20 04:12:27;;;;;;;;;;;;;;;;;;4997062;28;19929;-84
2022/07/20 04:14:52;;;;;;;;;;;;;;;;;;4995271;28;20535;-84
2022/07/20 04:17:17;;;;;;;;;;;;;;;;;;4998010;28;19917;-84
2022/07/20 04:19:42;;;;;;;;;;;;;;;;;;5000529;28;19918;-83
2022/07/20 04:22:07;;;;;;;;;;;;;;;;;;4997304;28;19921;-83
2022/07/20 04:24:33;;;;;;;;;;;;;;;;;;4998481;28;20004;-84
2022/07/20 04:26:58;;;;;;;;;;;;;;;;;;5000769;28;19918;-84
2022/07/20 04:29:23;;;;;;;;;;;;;;;;;;4999221;28;19914;-83
2022/07/20 04:31:48;;;;;;;;;;;;;;;;;;4996085;28;19967;-83
2022/07/20 04:34:13;;;;;;;;;;;;;;;;;;5001124;28;19917;-83
2022/07/20 04:36:38;;;;;;;;;;;;;;;;;;4996665;28;20048;-83
2022/07/20 04:39:04;;;;;;;;;;;;;;;;;;5002172;28;19913;-84
2022/07/20 04:41:29;;;;;;;;;;;;;;;;;;4999570;28;19921;-83
2022/07/20 04:43:54;;;;;;;;;;;;;;;;;;5001455;28;19921;-84
2022/07/20 04:46:19;;;;;;;;;;;;;;;;;;4995657;28;19964;-84
2022/07/20 04:48:44;;;;;;;;;;;;;;;;;;4999620;28;20283;-84
2022/07/20 04:51:09;;;;;;;;;;;;;;;;;;4995950;28;19960;-84
2022/07/20 04:53:35;;;;;;;;;;;;;;;;;;4998575;28;20082;-84
2022/07/20 04:56:00;;;;;;;;;;;;;;;;;;5000469;28;19921;-84
2022/07/20 04:58:25;;;;;;;;;;;;;;;;;;5000024;28;20192;-84
2022/07/20 05:00:50;;;;;;;;;;;;;;;;;;4998099;28;19917;-84
2022/07/20 05:03:15;;;;;;;;;;;;;;;;;;4995592;28;20012;-84
2022/07/20 05:05:40;;;;;;;;;;;;;;;;;;5001663;28;19936;-85
2022/07/20 05:08:06;;;;;;;;;;;;;;;;;;4997712;28;20342;-84
2022/07/20 05:10:31;;;;;;;;;;;;;;;;;;4999724;28;19917;-84
2022/07/20 05:12:56;;;;;;;;;;;;;;;;;;5003644;28;19922;-84
2022/07/20 05:15:23;;;;;;;;;;;;;;;;;;4997224;28;20397;-84
2022/07/20 05:17:48;;;;;;;;;;;;;;;;;;4996971;28;20292;-85
2022/07/20 05:20:13;;;;;;;;;;;;;;;;;;4993625;28;19984;-84
2022/07/20 05:22:38;;;;;;;;;;;;;;;;;;4995126;28;19922;-84
2022/07/20 05:25:04;;;;;;;;;;;;;;;;;;4996944;28;19948;-84
2022/07/20 05:27:29;;;;;;;;;;;;;;;;;;4997322;28;19929;-84
2022/07/20 05:29:54;;;;;;;;;;;;;;;;;;4999506;28;19937;-84
2022/07/20 05:32:19;;;;;;;;;;;;;;;;;;4996774;28;20330;-84
2022/07/20 05:34:44;;;;;;;;;;;;;;;;;;4999588;28;19925;-84
2022/07/20 05:37:09;;;;;;;;;;;;;;;;;;4997589;28;20418;-84
2022/07/20 05:39:35;;;;;;;;;;;;;;;;;;4998114;28;19921;-84
2022/07/20 05:42:00;;;;;;;;;;;;;;;;;;4995996;28;19928;-84
2022/07/20 05:44:25;;;;;;;;;;;;;;;;;;4969974;28;19921;-84
2022/07/20 05:46:50;;;;;;;;;;;;;;;;;;4997735;28;19918;-84
2022/07/20 05:49:15;;;;;;;;;;;;;;;;;;4996979;28;19914;-84
2022/07/20 05:51:41;;;;;;;;;;;;;;;;;;4997411;28;19925;-84
2022/07/20 05:54:06;;;;;;;;;;;;;;;;;;4981083;28;19913;-83
2022/07/20 05:56:31;;;;;;;;;;;;;;;;;;4996205;28;19933;-84
2022/07/20 05:58:56;;;;;;;;;;;;;;;;;;4997947;28;19923;-83
2022/07/20 06:01:21;;;;;;;;;;;;;;;;;;4998183;28;19918;-84
2022/07/20 06:03:47;;;;;;;;;;;;;;;;;;4997495;28;19914;-83
2022/07/20 06:06:12;;;;;;;;;;;;;;;;;;4993684;28;19917;-83
2022/07/20 06:08:37;;;;;;;;;;;;;;;;;;4996047;28;20742;-84
2022/07/20 06:11:02;;;;;;;;;;;;;;;;;;5001406;28;19920;-84
2022/07/20 06:13:27;;;;;;;;;;;;;;;;;;4995272;28;19917;-84
2022/07/20 06:15:53;;;;;;;;;;;;;;;;;;4999105;28;20295;-84
2022/07/20 06:18:18;;;;;;;;;;;;;;;;;;4993292;28;20368;-84
2022/07/20 06:20:43;;;;;;;;;;;;;;;;;;4999080;28;19925;-84
2022/07/20 06:23:08;;;;;;;;;;;;;;;;;;4993284;28;20426;-84
2022/07/20 06:25:33;;;;;;;;;;;;;;;;;;4998295;28;20125;-84
2022/07/20 06:28:00;;;;;;;;;;;;;;;;;;4995180;28;19929;-84
2022/07/20 06:30:25;;;;;;;;;;;;;;;;;;4999780;28;20023;-84
2022/07/20 06:32:51;;;;;;;;;;;;;;;;;;5002692;28;20386;-84
2022/07/20 06:35:16;;;;;;;;;;;;;;;;;;4999498;28;19918;-84
2022/07/20 06:37:41;;;;;;;;;;;;;;;;;;5002742;28;20417;-84
2022/07/20 06:40:06;;;;;;;;;;;;;;;;;;5002685;28;19992;-85
2022/07/20 06:42:32;;;;;;;;;;;;;;;;;;5000683;28;19921;-84
2022/07/20 06:44:57;;;;;;;;;;;;;;;;;;5001429;28;19920;-83
2022/07/20 06:47:22;;;;;;;;;;;;;;;;;;4996104;28;20198;-84
2022/07/20 06:49:47;;;;;;;;;;;;;;;;;;5001355;28;19917;-84
2022/07/20 06:52:12;;;;;;;;;;;;;;;;;;4998674;28;19913;-84
2022/07/20 06:54:38;;;;;;;;;;;;;;;;;;5001275;28;19922;-84
2022/07/20 06:57:03;;;;;;;;;;;;;;;;;;5003920;28;19917;-84
2022/07/20 06:59:28;;;;;;;;;;;;;;;;;;5001014;28;19924;-84
2022/07/20 07:01:53;;;;;;;;;;;;;;;;;;4998869;28;19921;-84
2022/07/20 07:04:18;;;;;;;;;;;;;;;;;;4999897;28;19917;-85
2022/07/20 07:06:43;;;;;;;;;;;;;;;;;;5004374;28;20468;-85
2022/07/20 07:09:09;;;;;;;;;;;;;;;;;;4999326;28;20367;-85
2022/07/20 07:11:34;;;;;;;;;;;;;;;;;;4996575;28;19952;-85
2022/07/20 07:13:59;;;;;;;;;;;;;;;;;;5002774;28;19926;-85
2022/07/20 07:16:25;;;;;;;;;;;;;;;;;;5001044;28;19921;-85
2022/07/20 07:18:50;;;;;;;;;;;;;;;;;;5005710;28;19933;-85
2022/07/20 07:21:15;;;;;;;;;;;;;;;;;;5005403;28;20186;-85
2022/07/20 07:23:40;;;;;;;;;;;;;;;;;;5000220;28;19965;-85
2022/07/20 07:26:06;;;;;;;;;;;;;;;;;;5003572;28;19921;-84
2022/07/20 07:28:31;;;;;;;;;;;;;;;;;;5006542;28;19917;-85
2022/07/20 07:30:56;;;;;;;;;;;;;;;;;;5007681;28;20279;-85
2022/07/20 07:33:25;;;;;;;;;;;;;;;;;;5003007;28;19951;-86
2022/07/20 07:35:50;;;;;;;;;;;;;;;;;;5005789;28;19976;-84
2022/07/20 07:38:15;;;;;;;;;;;;;;;;;;5004061;28;19925;-85
2022/07/20 07:40:41;;;;;;;;;;;;;;;;;;5006054;28;19929;-84
2022/07/20 07:43:06;;;;;;;;;;;;;;;;;;5006459;28;19913;-84
2022/07/20 07:45:31;;;;;;;;;;;;;;;;;;5004358;28;19917;-83
2022/07/20 07:47:56;;;;;;;;;;;;;;;;;;5005505;28;20051;-83
2022/07/20 07:50:21;;;;;;;;;;;;;;;;;;5005474;28;19913;-84
2022/07/20 07:52:46;;;;;;;;;;;;;;;;;;5006801;28;19949;-84
2022/07/20 07:55:12;;;;;;;;;;;;;;;;;;5003725;28;20415;-84
2022/07/20 07:57:37;;;;;;;;;;;;;;;;;;5007589;28;19940;-84
2022/07/20 08:00:02;;;;;;;;;;;;;;;;;;4986069;28;19913;-84
2022/07/20 08:02:28;;;;;;;;;;;;;;;;;;5007550;28;19920;-84
2022/07/20 08:04:53;;;;;;;;;;;;;;;;;;4987116;28;19913;-85
2022/07/20 08:07:18;;;;;;;;;;;;;;;;;;4989558;28;19913;-85
2022/07/20 08:09:43;;;;;;;;;;;;;;;;;;5008314;28;19976;-85
2022/07/20 08:12:08;;;;;;;;;;;;;;;;;;4999243;28;19964;-85
2022/07/20 08:14:34;;;;;;;;;;;;;;;;;;5009704;28;19914;-84
2022/07/20 08:16:59;;;;;;;;;;;;;;;;;;5006791;28;19964;-84
2022/07/20 08:19:24;;;;;;;;;;;;;;;;;;5007358;28;20309;-84
2022/07/20 08:21:49;;;;;;;;;;;;;;;;;;5002884;28;19914;-84
2022/07/20 08:24:16;;;;;;;;;;;;;;;;;;5004936;28;19956;-84
2022/07/20 08:26:41;;;;;;;;;;;;;;;;;;5007989;28;19914;-84
2022/07/20 08:29:06;;;;;;;;;;;;;;;;;;5008548;28;20422;-84
2022/07/20 08:31:31;;;;;;;;;;;;;;;;;;5007824;28;19917;-84
2022/07/20 08:33:56;;;;;;;;;;;;;;;;;;5004305;28;19964;-84
2022/07/20 08:36:22;;;;;;;;;;;;;;;;;;5006226;28;19932;-84
2022/07/20 08:38:47;;;;;;;;;;;;;;;;;;5004007;28;19921;-84
2022/07/20 08:41:12;;;;;;;;;;;;;;;;;;5006608;28;19939;-84
2022/07/20 08:43:37;;;;;;;;;;;;;;;;;;5005782;28;19914;-85
2022/07/20 08:46:02;;;;;;;;;;;;;;;;;;5005665;28;19914;-85
2022/07/20 08:48:28;;;;;;;;;;;;;;;;;;5007723;28;19914;-84
2022/07/20 08:50:53;;;;;;;;;;;;;;;;;;5000907;28;19927;-83
2022/07/20 08:53:18;;;;;;;;;;;;;;;;;;5002493;28;20005;-83
2022/07/20 08:55:44;;;;;;;;;;;;;;;;;;5003202;28;20374;-84
2022/07/20 08:58:09;;;;;;;;;;;;;;;;;;5007474;28;20183;-84
2022/07/20 09:00:34;;;;;;;;;;;;;;;;;;5004691;28;19992;-83
2022/07/20 09:03:02;;;;;;;;;;;;;;;;;;5005108;28;19918;-83
2022/07/20 09:05:28;;;;;;;;;;;;;;;;;;5001117;28;19925;-83
2022/07/20 09:07:53;;;;;;;;;;;;;;;;;;4983745;28;19975;-83
2022/07/20 09:10:19;;;;;;;;;;;;;;;;;;5001423;28;19945;-83
2022/07/20 09:12:44;;;;;;;;;;;;;;;;;;4999904;28;20433;-84
2022/07/20 09:15:09;;;;;;;;;;;;;;;;;;5004292;28;19913;-83
2022/07/20 09:17:34;;;;;;;;;;;;;;;;;;5002916;28;19922;-84
2022/07/20 09:19:59;;;;;;;;;;;;;;;;;;5003519;28;19959;-83
2022/07/20 09:22:24;;;;;;;;;;;;;;;;;;5003318;28;19913;-85
2022/07/20 09:24:50;;;;;;;;;;;;;;;;;;4997555;28;20024;-83
2022/07/20 09:27:15;;;;;;;;;;;;;;;;;;5003563;28;19972;-84
2022/07/20 09:29:40;;;;;;;;;;;;;;;;;;5007624;28;19972;-84
2022/07/20 09:32:05;;;;;;;;;;;;;;;;;;5005211;28;19917;-84
2022/07/20 09:34:30;;;;;;;;;;;;;;;;;;5007283;28;19914;-84
2022/07/20 09:36:55;;;;;;;;;;;;;;;;;;5004561;28;19941;-83
2022/07/20 09:39:21;;;;;;;;;;;;;;;;;;5001682;28;20000;-84
2022/07/20 09:41:46;;;;;;;;;;;;;;;;;;5004205;28;19951;-84
2022/07/20 09:44:11;;;;;;;;;;;;;;;;;;5007624;28;20344;-85
2022/07/20 09:46:36;;;;;;;;;;;;;;;;;;5003004;28;19914;-84
2022/07/20 09:49:01;;;;;;;;;;;;;;;;;;5004353;28;19920;-85
2022/07/20 09:51:27;;;;;;;;;;;;;;;;;;5004606;28;19948;-84
2022/07/20 09:53:52;;;;;;;;;;;;;;;;;;5002441;28;19952;-84
2022/07/20 09:56:17;;;;;;;;;;;;;;;;;;5001845;28;20379;-84
2022/07/20 09:58:42;;;;;;;;;;;;;;;;;;4999867;28;20351;-84
2022/07/20 10:01:07;;;;;;;;;;;;;;;;;;5005091;28;19917;-85
2022/07/20 10:03:33;;;;;;;;;;;;;;;;;;5002762;28;19913;-83
2022/07/20 10:05:58;;;;;;;;;;;;;;;;;;5006862;28;19917;-83
2022/07/20 10:08:23;;;;;;;;;;;;;;;;;;5004053;28;20114;-83
2022/07/20 10:10:48;;;;;;;;;;;;;;;;;;5008318;28;19968;-83
2022/07/20 10:13:13;;;;;;;;;;;;;;;;;;5005121;28;19922;-83
2022/07/20 10:15:38;;;;;;;;;;;;;;;;;;5001110;28;19932;-83
2022/07/20 10:18:04;;;;;;;;;;;;;;;;;;5005953;28;19913;-84
2022/07/20 10:20:30;;;;;;;;;;;;;;;;;;5010442;28;19959;-84
2022/07/20 10:22:55;;;;;;;;;;;;;;;;;;5000546;28;19984;-83
2022/07/20 10:25:20;;;;;;;;;;;;;;;;;;5003316;28;20371;-83
2022/07/20 10:27:46;;;;;;;;;;;;;;;;;;5000968;28;19937;-83
2022/07/20 10:30:11;;;;;;;;;;;;;;;;;;5004868;28;19925;-83
2022/07/20 10:32:36;;;;;;;;;;;;;;;;;;5005908;28;19928;-82
2022/07/20 10:35:01;;;;;;;;;;;;;;;;;;5005349;28;19913;-82
2022/07/20 10:37:26;;;;;;;;;;;;;;;;;;5004456;28;19917;-83
2022/07/20 10:39:52;;;;;;;;;;;;;;;;;;5006099;28;19943;-83
2022/07/20 10:42:17;;;;;;;;;;;;;;;;;;5003155;28;19914;-84
2022/07/20 10:44:43;;;;;;;;;;;;;;;;;;4990815;28;19952;-84
2022/07/20 10:47:08;;;;;;;;;;;;;;;;;;5003900;28;19913;-84
2022/07/20 10:49:33;;;;;;;;;;;;;;;;;;5002007;28;19972;-84
2022/07/20 10:51:58;;;;;;;;;;;;;;;;;;5005414;28;19913;-84
2022/07/20 10:54:23;;;;;;;;;;;;;;;;;;5011968;28;20024;-84
2022/07/20 10:56:48;;;;;;;;;;;;;;;;;;5001569;28;19922;-85
2022/07/20 10:59:14;;;;;;;;;;;;;;;;;;5002590;28;20131;-84
2022/07/20 11:01:39;;;;;;;;;;;;;;;;;;5001736;28;19925;-84
2022/07/20 11:04:04;;;;;;;;;;;;;;;;;;5010922;28;19917;-84
2022/07/20 11:06:29;;;;;;;;;;;;;;;;;;5000554;28;19924;-84
2022/07/20 11:08:54;;;;;;;;;;;;;;;;;;5010155;28;19933;-84
2022/07/20 11:11:20;;;;;;;;;;;;;;;;;;5008419;28;19964;-84
2022/07/20 11:13:46;;;;;;;;;;;;;;;;;;5005706;28;19924;-84
2022/07/20 11:16:11;;;;;;;;;;;;;;;;;;5009119;28;19918;-84
2022/07/20 11:18:36;;;;;;;;;;;;;;;;;;5009911;28;20160;-84
2022/07/20 11:21:01;;;;;;;;;;;;;;;;;;5003719;28;19913;-84
2022/07/20 11:23:26;;;;;;;;;;;;;;;;;;5007482;28;20343;-84
2022/07/20 11:25:52;;;;;;;;;;;;;;;;;;5005723;28;19913;-84
2022/07/20 11:28:17;;;;;;;;;;;;;;;;;;5003287;28;19921;-84
2022/07/20 11:30:42;;;;;;;;;;;;;;;;;;5005427;28;20279;-85
2022/07/20 11:33:07;;;;;;;;;;;;;;;;;;5004415;28;19918;-84
2022/07/20 11:35:33;;;;;;;;;;;;;;;;;;5003720;28;19967;-84
2022/07/20 11:37:58;;;;;;;;;;;;;;;;;;5001977;28;20395;-84
2022/07/20 11:40:23;;;;;;;;;;;;;;;;;;5006238;28;19913;-83
2022/07/20 11:42:48;;;;;;;;;;;;;;;;;;5003449;28;20002;-82
2022/07/20 11:45:13;;;;;;;;;;;;;;;;;;5002702;28;19913;-82
2022/07/20 11:47:38;;;;;;;;;;;;;;;;;;5003435;28;19918;-83
2022/07/20 11:50:04;;;;;;;;;;;;;;;;;;5001496;28;20261;-83
2022/07/20 11:52:29;;;;;;;;;;;;;;;;;;5003776;28;19914;-83
2022/07/20 11:54:54;;;;;;;;;;;;;;;;;;5003552;28;19914;-83
2022/07/20 11:57:19;;;;;;;;;;;;;;;;;;5002055;28;20357;-83
2022/07/20 11:59:44;;;;;;;;;;;;;;;;;;4999868;28;19929;-83
2022/07/20 12:02:10;;;;;;;;;;;;;;;;;;5002090;28;19918;-82
2022/07/20 12:04:35;;;;;;;;;;;;;;;;;;5004578;28;19921;-83
2022/07/20 12:07:00;;;;;;;;;;;;;;;;;;5001323;28;19936;-83
2022/07/20 12:09:25;;;;;;;;;;;;;;;;;;4988935;28;19920;-83
2022/07/20 12:11:51;;;;;;;;;;;;;;;;;;5000516;28;19944;-83
2022/07/20 12:14:16;;;;;;;;;;;;;;;;;;5001690;28;19949;-82
2022/07/20 12:16:45;;;;;;;;;;;;;;;;;;5003774;28;19948;-83
2022/07/20 12:19:10;;;;;;;;;;;;;;;;;;5001144;28;19921;-83
2022/07/20 12:21:35;;;;;;;;;;;;;;;;;;4995645;28;20326;-82
2022/07/20 12:24:04;;;;;;;;;;;;;;;;;;4997216;28;19922;-83
2022/07/20 12:26:30;;;;;;;;;;;;;;;;;;4998122;28;19914;-82
2022/07/20 12:28:55;;;;;;;;;;;;;;;;;;5000856;28;19917;-83
2022/07/20 12:31:20;;;;;;;;;;;;;;;;;;4999193;28;20299;-83
2022/07/20 12:33:45;;;;;;;;;;;;;;;;;;5004092;28;20198;-84
2022/07/20 12:36:10;;;;;;;;;;;;;;;;;;5004037;28;19976;-83
2022/07/20 12:38:36;;;;;;;;;;;;;;;;;;5008669;28;19910;-83
2022/07/20 12:41:01;;;;;;;;;;;;;;;;;;5006684;28;19922;-83
2022/07/20 12:43:26;;;;;;;;;;;;;;;;;;4989154;28;19921;-84
2022/07/20 12:45:51;;;;;;;;;;;;;;;;;;5003726;28;20001;-83
2022/07/20 12:48:16;;;;;;;;;;;;;;;;;;5003174;28;20265;-83
2022/07/20 12:50:42;;;;;;;;;;;;;;;;;;5000973;28;19917;-82
2022/07/20 12:53:07;;;;;;;;;;;;;;;;;;5003404;28;20256;-82
2022/07/20 12:55:32;;;;;;;;;;;;;;;;;;5003857;28;19914;-83
2022/07/20 12:57:57;;;;;;;;;;;;;;;;;;5005370;28;19929;-83
2022/07/20 13:00:23;;;;;;;;;;;;;;;;;;5006392;28;19921;-83
2022/07/20 13:02:48;;;;;;;;;;;;;;;;;;5002404;28;20409;-83
2022/07/20 13:05:13;;;;;;;;;;;;;;;;;;5009689;28;19917;-83
2022/07/20 13:07:38;;;;;;;;;;;;;;;;;;5003371;28;19924;-83
2022/07/20 13:10:04;;;;;;;;;;;;;;;;;;4998609;28;19920;-83
2022/07/20 13:12:29;;;;;;;;;;;;;;;;;;4999289;28;20004;-83
2022/07/20 13:14:54;;;;;;;;;;;;;;;;;;5006132;28;20004;-83
2022/07/20 13:17:19;;;;;;;;;;;;;;;;;;5003496;28;19925;-82
2022/07/20 13:19:44;;;;;;;;;;;;;;;;;;5001703;28;19969;-83
2022/07/20 13:22:10;;;;;;;;;;;;;;;;;;4999805;28;20080;-83
2022/07/20 13:24:35;;;;;;;;;;;;;;;;;;4998781;28;19948;-83
2022/07/20 13:27:00;;;;;;;;;;;;;;;;;;5002113;28;19925;-83
2022/07/20 13:29:25;;;;;;;;;;;;;;;;;;5007394;28;19996;-83
2022/07/20 13:31:51;;;;;;;;;;;;;;;;;;5004166;28;19917;-83
2022/07/20 13:34:16;;;;;;;;;;;;;;;;;;5005390;28;19933;-83
2022/07/20 13:36:41;;;;;;;;;;;;;;;;;;5007902;28;19953;-83
2022/07/20 13:39:06;;;;;;;;;;;;;;;;;;5006212;28;19914;-83
2022/07/20 13:41:31;;;;;;;;;;;;;;;;;;4990938;28;19918;-83
2022/07/20 13:43:56;;;;;;;;;;;;;;;;;;5005720;28;20337;-83
2022/07/20 13:46:22;;;;;;;;;;;;;;;;;;5008871;28;20419;-83
2022/07/20 13:48:47;;;;;;;;;;;;;;;;;;5008826;28;19948;-83
2022/07/20 13:51:12;;;;;;;;;;;;;;;;;;5007099;28;19914;-82
2022/07/20 13:53:37;;;;;;;;;;;;;;;;;;5002264;28;19921;-82
2022/07/20 13:56:03;;;;;;;;;;;;;;;;;;5000806;28;19917;-82
2022/07/20 13:58:29;;;;;;;;;;;;;;;;;;5001872;28;20367;-81
2022/07/20 14:00:54;;;;;;;;;;;;;;;;;;5002319;28;20370;-82
2022/07/20 14:03:19;;;;;;;;;;;;;;;;;;5004247;28;20048;-82
2022/07/20 14:05:45;;;;;;;;;;;;;;;;;;5003044;28;19917;-82
2022/07/20 14:08:10;;;;;;;;;;;;;;;;;;5004095;28;20040;-82
2022/07/20 14:10:35;;;;;;;;;;;;;;;;;;5000563;28;20283;-82
2022/07/20 14:13:00;;;;;;;;;;;;;;;;;;5003363;28;20016;-81
2022/07/20 14:15:25;;;;;;;;;;;;;;;;;;5022189;23;19957;-90
2022/07/20 14:17:51;;;;;;;;;;;;;;;;;;5053859;28;20026;-88
2022/07/20 14:20:16;;;;;;;;;;;;;;;;;;5042691;28;19909;-88
2022/07/20 14:22:41;;;;;;;;;;;;;;;;;;5039672;28;19920;-88
2022/07/20 14:25:06;;;;;;;;;;;;;;;;;;5047862;28;20002;-87
2022/07/20 14:27:32;;;;;;;;;;;;;;;;;;5045097;28;19939;-90
2022/07/20 14:29:57;;;;;;;;;;;;;;;;;;5038520;28;19913;-90
2022/07/20 14:32:22;;;;;;;;;;;;;;;;;;5048890;28;20340;-90
2022/07/20 14:34:48;;;;;;;;;;;;;;;;;;5036884;28;19975;-90
2022/07/20 14:37:13;;;;;;;;;;;;;;;;;;5043668;28;19916;-90
2022/07/20 14:39:38;;;;;;;;;;;;;;;;;;5038794;28;19955;-90
2022/07/20 14:42:03;;;;;;;;;;;;;;;;;;5033934;28;19979;-90
2022/07/20 14:44:28;;;;;;;;;;;;;;;;;;5036115;28;19913;-90
2022/07/20 14:46:54;;;;;;;;;;;;;;;;;;5043058;28;19913;-90
2022/07/20 14:49:19;;;;;;;;;;;;;;;;;;5048820;28;19916;-90
2022/07/20 14:51:44;;;;;;;;;;;;;;;;;;5033952;28;19996;-89
2022/07/20 14:54:09;;;;;;;;;;;;;;;;;;5037887;28;20346;-89
2022/07/20 14:56:36;;;;;;;;;;;;;;;;;;5040515;28;19913;-90
2022/07/20 14:59:01;;;;;;;;;;;;;;;;;;5037782;28;19920;-90
2022/07/20 15:01:26;;;;;;;;;;;;;;;;;;5041156;28;20359;-90
2022/07/20 15:03:51;;;;;;;;;;;;;;;;;;5047495;28;19999;-91
2022/07/20 15:06:16;;;;;;;;;;;;;;;;;;5050856;28;19908;-90
2022/07/20 15:08:42;;;;;;;;;;;;;;;;;;5053654;28;20389;-90
2022/07/20 15:11:07;;;;;;;;;;;;;;;;;;5034075;28;20354;-90
2022/07/20 15:13:35;;;;;;;;;;;;;;;;;;5050808;28;19916;-90
2022/07/20 15:16:01;;;;;;;;;;;;;;;;;;5045688;28;20298;-89
2022/07/20 15:18:26;;;;;;;;;;;;;;;;;;5047269;28;19908;-90
2022/07/20 15:20:51;;;;;;;;;;;;;;;;;;5043789;28;19917;-90
2022/07/20 15:23:16;;;;;;;;;;;;;;;;;;5043339;28;20437;-90
2022/07/20 15:25:42;;;;;;;;;;;;;;;;;;5049756;28;19920;-90
2022/07/20 15:28:07;;;;;;;;;;;;;;;;;;5048751;28;19913;-90
2022/07/20 15:30:32;;;;;;;;;;;;;;;;;;5036286;28;19909;-90
2022/07/20 15:32:57;;;;;;;;;;;;;;;;;;5033257;28;19959;-87
2022/07/20 15:35:22;;;;;;;;;;;;;;;;;;5033792;28;19923;-88
2022/07/20 15:37:48;;;;;;;;;;;;;;;;;;5033523;28;20397;-88
2022/07/20 15:40:13;;;;;;;;;;;;;;;;;;5032359;28;19939;-88
2022/07/20 15:42:39;;;;;;;;;;;;;;;;;;5029178;28;19917;-88
2022/07/20 15:45:04;;;;;;;;;;;;;;;;;;5031948;28;19916;-88
2022/07/20 15:47:31;;;;;;;;;;;;;;;;;;5034894;28;21914;-88
2022/07/20 15:49:56;;;;;;;;;;;;;;;;;;5038974;28;19979;-88
2022/07/20 15:52:22;;;;;;;;;;;;;;;;;;5031274;28;20347;-88
2022/07/20 15:54:47;;;;;;;;;;;;;;;;;;5035907;28;19919;-89
2022/07/20 15:57:18;;;;;;;;;;;;;;;;;;5034256;28;19960;-88
2022/07/20 15:59:44;;;;;;;;;;;;;;;;;;5032340;28;19909;-87
2022/07/20 16:02:09;;;;;;;;;;;;;;;;;;5042853;28;20008;-87
2022/07/20 16:04:34;;;;;;;;;;;;;;;;;;5046418;28;19920;-87
2022/07/20 16:06:59;;;;;;;;;;;;;;;;;;5043071;28;19953;-87
2022/07/20 16:09:24;;;;;;;;;;;;;;;;;;5041541;28;20007;-88
2022/07/20 16:11:49;;;;;;;;;;;;;;;;;;5038946;28;19923;-87
2022/07/20 16:14:15;;;;;;;;;;;;;;;;;;5039024;28;19944;-87
2022/07/20 16:16:40;;;;;;;;;;;;;;;;;;5045739;28;19917;-88
2022/07/20 16:19:05;;;;;;;;;;;;;;;;;;5032299;28;19967;-88
2022/07/20 16:21:30;;;;;;;;;;;;;;;;;;5011589;28;19921;-87
2022/07/20 16:23:55;;;;;;;;;;;;;;;;;;5037479;28;19917;-88
2022/07/20 16:26:21;;;;;;;;;;;;;;;;;;5032305;28;19921;-87
2022/07/20 16:28:46;;;;;;;;;;;;;;;;;;5033452;28;20441;-87
2022/07/20 16:31:11;;;;;;;;;;;;;;;;;;5031404;28;19924;-87
2022/07/20 16:33:36;;;;;;;;;;;;;;;;;;5033613;28;19987;-87